Hlavní strana
METAR-TAF:

METAR-TAF

Letiště :

Belize City, Belize

Phillip Goldston

zeměpisná šířka: 17-32N, zeměpisná délka: 088-18W, výška: 5 m

Aktuální stav počasí

Zpráva byla vytvořena před 6 hodinami a 5 minutami, v 00:00 UTC
Východní vítr 3 kt
Teplota 26°C
Vlhkost vzduchu 89%
Tlak 1012 hPa
Viditelnost 10 km a více
Skoro jasno ve výšce 2000 ft

METAR: MZBZ 230000Z 09003KT 9999 FEW020 26/24 A2988 Q1012 NOSIG

Čas: 00:05 (06:05 UTC)

Předpověď počasí

Zpráva byla vytvořena před 3 hodinami a 5 minutami, v 03:00 UTC
Předpověď platná od 23 v 06 UTC do 24 v 06 UTC
vítr z různých směrů 2 kt
Viditelnost 10 km a více
Skoro jasno ve výšce 2000 ft
Pravděpodobnost 30% :
Dočasný
od 23 v 10 UTC do 23 v 14 UTC
Viditelnost: 5000 m
Oblačno až skoro zataženo ve výšce 1400 ft
dešťové přeháňky
Změna
od 23 v 12 UTC do 23 v 14 UTC
Východní vítr 8 kt

TAF: MZBZ 230300Z 2306/2406 VRB02KT 9999 FEW020 PROB30 TEMPO 2310/2314 5000 SHRA BKN014 BECMG 2312/2314 09008KT

Stav a předpovědi počasí z více než 4 000 letišť (zprávy METAR a TAF).

Červené a žluté tečky na mapě představují dostupné meteorologické stanice.

Když kurzor umístíte na tečku, zobrazí se název stanice.

Pak kliknutím zobrazíte stav a předpověď počasí.

Chcete-li změnit mapu, kliknutím na zelené tlačítko se znaménkem +mapu přiblížíte, kliknutím na zelené tlačítko se znaménkem – mapu oddálíte a kliknutím na zelené šipky přejdete na sousední mapy.


METAR-TAF: